| time (UTC) | temp F | wind direction | speed MPH | gust MPH | rain 1hr in | rain 24hr in | rain mn in | humidity % | barometer mb |
| 20260503212538 | 79 | 230 | 1.0 | 8.0 | 0.00 | 0.00 | 0.00 | 38 | 1020.5 |
| 20260503212039 | 78 | 203 | 3.0 | 9.0 | 0.00 | 0.00 | 0.00 | 37 | 1020.7 |
| 20260503211550 | 79 | 186 | 4.0 | 10.0 | 0.00 | 0.00 | 0.00 | 37 | 1020.8 |
| 20260503211038 | 79 | 224 | 0.0 | 10.0 | 0.00 | 0.00 | 0.00 | 36 | 1020.9 |
| 20260503210539 | 79 | 214 | 2.0 | 8.0 | 0.00 | 0.00 | 0.00 | 35 | 1020.9 |
| 20260503210043 | 78 | 40 | 3.0 | 11.0 | 0.00 | 0.00 | 0.00 | 38 | 1020.9 |
| 20260503205539 | 78 | 168 | 4.0 | 11.0 | 0.00 | 0.00 | 0.00 | 35 | 1021.3 |
| 20260503205039 | 79 | 0 | 2.0 | 10.0 | 0.00 | 0.00 | 0.00 | 35 | 1021.2 |
| 20260503204549 | 79 | 47 | 2.0 | 8.0 | 0.00 | 0.00 | 0.00 | 36 | 1021.4 |
| 20260503204038 | 78 | 68 | 3.0 | 8.0 | 0.00 | 0.00 | 0.00 | 39 | 1021.8 |
| 20260503203539 | 78 | 100 | 4.0 | 8.0 | 0.00 | 0.00 | 0.00 | 39 | 1021.6 |
| 20260503203049 | 78 | 260 | 1.0 | 7.0 | 0.00 | 0.00 | 0.00 | 39 | 1021.8 |
| 20260503202538 | 79 | 200 | 4.0 | 7.0 | 0.00 | 0.00 | 0.00 | 38 | 1022.0 |
| 20260503202037 | 78 | 0 | 0.0 | 10.0 | 0.00 | 0.00 | 0.00 | 40 | 1022.0 |
| 20260503201549 | 78 | 0 | 2.0 | 10.0 | 0.00 | 0.00 | 0.00 | 40 | 1021.9 |
| 20260503201038 | 78 | 0 | 0.0 | 8.0 | 0.00 | 0.00 | 0.00 | 42 | 1022.0 |
| 20260503200538 | 78 | 126 | 3.0 | 9.0 | 0.00 | 0.00 | 0.00 | 38 | 1022.1 |
| 20260503200047 | 78 | 188 | 4.0 | 12.0 | 0.00 | 0.00 | 0.00 | 38 | 1022.2 |
| 20260503195538 | 78 | 223 | 2.0 | 12.0 | 0.00 | 0.00 | 0.00 | 39 | 1022.4 |
| 20260503195039 | 79 | 12 | 3.0 | 12.0 | 0.00 | 0.00 | 0.00 | 40 | 1022.5 |
| 20260503194555 | 78 | 59 | 2.0 | 11.0 | 0.00 | 0.00 | 0.00 | 38 | 1022.5 |
| 20260503194039 | 78 | 210 | 3.0 | 11.0 | 0.00 | 0.00 | 0.00 | 41 | 1022.5 |
| 20260503193539 | 78 | 0 | 1.0 | 7.0 | 0.00 | 0.00 | 0.00 | 41 | 1022.5 |
| 20260503193051 | 78 | 50 | 1.0 | 8.0 | 0.00 | 0.00 | 0.00 | 43 | 1022.7 |
| 20260503192539 | 77 | 85 | 1.0 | 8.0 | 0.00 | 0.00 | 0.00 | 41 | 1022.6 |
| 20260503192039 | 77 | 226 | 3.0 | 8.0 | 0.00 | 0.00 | 0.00 | 40 | 1022.6 |
| 20260503191608 | 77 | 0 | 1.0 | 7.0 | 0.00 | 0.00 | 0.00 | 42 | 1022.8 |
| 20260503191041 | 77 | 212 | 1.0 | 7.0 | 0.00 | 0.00 | 0.00 | 39 | 1023.0 |
| 20260503190539 | 77 | 123 | 3.0 | 7.0 | 0.00 | 0.00 | 0.00 | 38 | 1023.0 |
| 20260503190048 | 76 | 45 | 1.0 | 8.0 | 0.00 | 0.00 | 0.00 | 39 | 1023.0 |
| 20260503185537 | 76 | 255 | 3.0 | 8.0 | 0.00 | 0.00 | 0.00 | 37 | 1023.1 |
| 20260503185039 | 76 | 0 | 4.0 | 8.0 | 0.00 | 0.00 | 0.00 | 41 | 1023.2 |
| 20260503184547 | 77 | 227 | 3.0 | 7.0 | 0.00 | 0.00 | 0.00 | 43 | 1023.2 |
| 20260503184041 | 77 | 36 | 0.0 | 6.0 | 0.00 | 0.00 | 0.00 | 45 | 1023.2 |
| 20260503183538 | 77 | 245 | 0.0 | 7.0 | 0.00 | 0.00 | 0.00 | 42 | 1023.4 |
| 20260503183044 | 77 | 203 | 2.0 | 8.0 | 0.00 | 0.00 | 0.00 | 41 | 1023.6 |
| 20260503182540 | 76 | 219 | 1.0 | 8.0 | 0.00 | 0.00 | 0.00 | 43 | 1023.6 |
| 20260503182041 | 76 | 183 | 2.0 | 5.0 | 0.00 | 0.00 | 0.00 | 44 | 1023.7 |
| 20260503181549 | 76 | 243 | 1.0 | 4.0 | 0.00 | 0.00 | 0.00 | 46 | 1023.8 |
| 20260503181039 | 76 | 0 | 0.0 | 6.0 | 0.00 | 0.00 | 0.00 | 44 | 1023.9 |
| 20260503180539 | 76 | 0 | 1.0 | 7.0 | 0.00 | 0.00 | 0.00 | 45 | 1024.0 |
| 20260503180056 | 75 | 196 | 2.0 | 7.0 | 0.00 | 0.00 | 0.00 | 47 | 1024.2 |
| 20260503175538 | 75 | 231 | 0.0 | 7.0 | 0.00 | 0.00 | 0.00 | 48 | 1024.4 |
| 20260503175038 | 75 | 227 | 2.0 | 7.0 | 0.00 | 0.00 | 0.00 | 49 | 1024.4 |
| 20260503174552 | 75 | 163 | 1.0 | 7.0 | 0.00 | 0.00 | 0.00 | 50 | 1024.6 |
| 20260503174039 | 74 | 242 | 0.0 | 7.0 | 0.00 | 0.00 | 0.00 | 49 | 1024.7 |
| 20260503173539 | 74 | 242 | 2.0 | 7.0 | 0.00 | 0.00 | 0.00 | 50 | 1024.7 |
| 20260503173044 | 74 | 119 | 2.0 | 11.0 | 0.00 | 0.00 | 0.00 | 49 | 1024.8 |
| 20260503172539 | 74 | 0 | 3.0 | 11.0 | 0.00 | 0.00 | 0.00 | 50 | 1024.9 |
| 20260503172106 | 74 | 208 | 4.0 | 7.0 | 0.00 | 0.00 | 0.00 | 47 | 1025.0 |
| 20260503171550 | 74 | 226 | 2.0 | 6.0 | 0.00 | 0.00 | 0.00 | 51 | 1025.1 |
| 20260503171039 | 74 | 0 | 1.0 | 7.0 | 0.00 | 0.00 | 0.00 | 52 | 1025.1 |
| 20260503170540 | 74 | 68 | 2.0 | 7.0 | 0.00 | 0.00 | 0.00 | 50 | 1025.0 |
| 20260503160104 | 72 | 0 | 0.0 | 8.0 | 0.00 | 0.00 | 0.00 | 51 | 1025.6 |
| 20260503150538 | 70 | 0 | 0.0 | 1.0 | 0.00 | 0.00 | 0.00 | 59 | 1025.8 |
| 20260503131038 | 63 | 0 | 0.0 | 0.0 | 0.00 | 0.00 | 0.00 | 75 | 1024.8 |
| 20260503130538 | 62 | 0 | 0.0 | 0.0 | 0.00 | 0.00 | 0.00 | 77 | 1024.9 |
| 20260503110537 | 0 | 0.0 | 0.0 | 0.00 | 0.00 | 0.00 | 1023.8 | ||
| 20260503081553 | 55 | 0 | 0.0 | 0.0 | 0.00 | 0.00 | 0.00 | 84 | 1023.3 |
| 20260503081038 | 55 | 0 | 0.0 | 0.0 | 0.00 | 0.00 | 0.00 | 84 | 1023.5 |
| 20260503080543 | 56 | 0 | 0.0 | 0.0 | 0.00 | 0.00 | 0.00 | 84 | 1023.6 |
| 20260503080104 | 56 | 0 | 0.0 | 0.0 | 0.00 | 0.00 | 0.00 | 84 | 1023.8 |
| 20260503072538 | 55 | 0 | 0.0 | 0.0 | 0.00 | 0.00 | 0.00 | 83 | 1023.7 |
| 20260503072041 | 55 | 0 | 0.0 | 0.0 | 0.00 | 0.00 | 0.00 | 85 | 1023.8 |
| 20260503071556 | 55 | 0 | 0.0 | 0.0 | 0.00 | 0.00 | 0.00 | 83 | 1024.2 |
| 20260503071038 | 55 | 0 | 0.0 | 0.0 | 0.00 | 0.00 | 0.00 | 83 | 1024.2 |
| 20260503070539 | 55 | 0 | 0.0 | 0.0 | 0.00 | 0.00 | 0.00 | 83 | 1024.1 |
| 20260503055039 | 58 | 0 | 0.0 | 0.0 | 0.00 | 0.00 | 0.00 | 75 | 1024.2 |
| 20260503054558 | 58 | 0 | 0.0 | 0.0 | 0.00 | 0.00 | 0.00 | 75 | 1024.0 |
| 20260503054038 | 58 | 0 | 0.0 | 0.0 | 0.00 | 0.00 | 0.00 | 74 | 1024.0 |
| 20260503053537 | 59 | 0 | 0.0 | 0.0 | 0.00 | 0.00 | 0.00 | 75 | 1024.0 |
| 20260503053047 | 59 | 0 | 0.0 | 0.0 | 0.00 | 0.00 | 0.00 | 75 | 1023.8 |
| 20260503052539 | 59 | 0 | 0.0 | 0.0 | 0.00 | 0.00 | 0.00 | 75 | 1024.0 |
| 20260503052038 | 60 | 0 | 0.0 | 0.0 | 0.00 | 0.00 | 0.00 | 74 | 1024.0 |
| 20260503051547 | 60 | 0 | 0.0 | 0.0 | 0.00 | 0.00 | 0.00 | 70 | 1023.9 |
| 20260503051038 | 61 | 0 | 0.0 | 0.0 | 0.00 | 0.00 | 0.00 | 68 | 1023.8 |
| 20260503050538 | 61 | 0 | 0.0 | 0.0 | 0.00 | 0.00 | 0.00 | 67 | 1023.9 |
| 20260503050048 | 61 | 0 | 0.0 | 0.0 | 0.00 | 0.00 | 0.00 | 67 | 1023.8 |
| 20260503045540 | 61 | 0 | 0.0 | 0.0 | 0.00 | 0.00 | 0.00 | 67 | 1023.9 |
| 20260503045039 | 62 | 0 | 0.0 | 0.0 | 0.00 | 0.00 | 0.00 | 67 | 1023.9 |
| 20260503044548 | 62 | 0 | 0.0 | 0.0 | 0.00 | 0.00 | 0.00 | 67 | 1023.7 |
| 20260503044037 | 62 | 0 | 0.0 | 0.0 | 0.00 | 0.00 | 0.00 | 66 | 1023.7 |
| 20260503043538 | 62 | 0 | 0.0 | 0.0 | 0.00 | 0.00 | 0.00 | 66 | 1023.6 |
| 20260503043055 | 62 | 0 | 0.0 | 0.0 | 0.00 | 0.00 | 0.00 | 67 | 1023.7 |
| 20260503042538 | 61 | 0 | 0.0 | 0.0 | 0.00 | 0.00 | 0.00 | 67 | 1023.8 |
| 20260503042039 | 62 | 0 | 0.0 | 0.0 | 0.00 | 0.00 | 0.00 | 67 | 1023.9 |
| 20260503041549 | 62 | 0 | 0.0 | 0.0 | 0.00 | 0.00 | 0.00 | 66 | 1024.0 |
| 20260503041041 | 62 | 0 | 0.0 | 0.0 | 0.00 | 0.00 | 0.00 | 66 | 1024.0 |
| 20260503040538 | 62 | 0 | 0.0 | 0.0 | 0.00 | 0.00 | 0.00 | 65 | 1024.0 |
| 20260503040054 | 62 | 0 | 0.0 | 0.0 | 0.00 | 0.00 | 0.00 | 65 | 1023.9 |
| 20260503035538 | 63 | 0 | 0.0 | 0.0 | 0.00 | 0.00 | 0.00 | 64 | 1023.7 |
| 20260503035039 | 63 | 0 | 0.0 | 0.0 | 0.00 | 0.00 | 0.00 | 64 | 1023.6 |
| 20260503034550 | 62 | 0 | 0.0 | 0.0 | 0.00 | 0.00 | 0.00 | 64 | 1023.6 |
| 20260503034038 | 62 | 0 | 0.0 | 0.0 | 0.00 | 0.00 | 0.00 | 65 | 1023.7 |
| 20260503033540 | 62 | 0 | 0.0 | 0.0 | 0.00 | 0.00 | 0.00 | 65 | 1023.5 |
| 20260503033051 | 62 | 0 | 0.0 | 0.0 | 0.00 | 0.00 | 0.00 | 65 | 1023.5 |
| 20260503032539 | 63 | 0 | 0.0 | 0.0 | 0.00 | 0.00 | 0.00 | 64 | 1023.6 |
| 20260503032039 | 63 | 0 | 0.0 | 0.0 | 0.00 | 0.00 | 0.00 | 64 | 1023.4 |
| 20260503031546 | 63 | 0 | 0.0 | 0.0 | 0.00 | 0.00 | 0.00 | 63 | 1023.4 |
| 20260503031039 | 63 | 0 | 0.0 | 0.0 | 0.00 | 0.00 | 0.00 | 63 | 1023.4 |
| 20260503030540 | 63 | 0 | 0.0 | 0.0 | 0.00 | 0.00 | 0.00 | 61 | 1023.3 |
| 20260503030053 | 63 | 0 | 0.0 | 0.0 | 0.00 | 0.00 | 0.00 | 61 | 1023.2 |
| 20260503025539 | 64 | 0 | 0.0 | 0.0 | 0.00 | 0.00 | 0.00 | 62 | 1023.2 |
| 20260503025039 | 64 | 0 | 0.0 | 0.0 | 0.00 | 0.00 | 0.00 | 59 | 1023.1 |
| 20260503024548 | 65 | 0 | 0.0 | 0.0 | 0.00 | 0.00 | 0.00 | 58 | 1023.0 |
| 20260503024039 | 65 | 0 | 0.0 | 0.0 | 0.00 | 0.00 | 0.00 | 59 | 1023.0 |
| 20260503023538 | 65 | 0 | 0.0 | 0.0 | 0.00 | 0.00 | 0.00 | 59 | 1022.8 |
| 20260503023054 | 65 | 0 | 0.0 | 0.0 | 0.00 | 0.00 | 0.00 | 57 | 1023.0 |
| 20260503022539 | 66 | 0 | 0.0 | 0.0 | 0.00 | 0.00 | 0.00 | 56 | 1022.8 |
| 20260503022039 | 66 | 0 | 0.0 | 0.0 | 0.00 | 0.00 | 0.00 | 55 | 1022.8 |
| 20260503021553 | 67 | 0 | 0.0 | 0.0 | 0.00 | 0.00 | 0.00 | 55 | 1022.7 |
| 20260503021040 | 67 | 0 | 0.0 | 3.0 | 0.00 | 0.00 | 0.00 | 54 | 1022.5 |
| 20260503020540 | 67 | 0 | 0.0 | 5.0 | 0.00 | 0.00 | 0.00 | 53 | 1022.5 |
| 20260503020050 | 68 | 51 | 0.0 | 5.0 | 0.00 | 0.00 | 0.00 | 53 | 1022.4 |
| 20260503015541 | 68 | 0 | 1.0 | 6.0 | 0.00 | 0.00 | 0.00 | 52 | 1022.3 |
| 20260503015037 | 68 | 32 | 2.0 | 6.0 | 0.00 | 0.00 | 0.00 | 52 | 1022.2 |
| 20260503014559 | 68 | 0 | 0.0 | 4.0 | 0.00 | 0.00 | 0.00 | 52 | 1022.2 |
| 20260503014038 | 68 | 0 | 1.0 | 3.0 | 0.00 | 0.00 | 0.00 | 51 | 1022.1 |
| 20260503013538 | 69 | 71 | 0.0 | 4.0 | 0.00 | 0.00 | 0.00 | 51 | 1022.0 |
| 20260503013050 | 69 | 40 | 2.0 | 4.0 | 0.00 | 0.00 | 0.00 | 50 | 1022.0 |
| 20260503012539 | 69 | 0 | 1.0 | 5.0 | 0.00 | 0.00 | 0.00 | 50 | 1022.0 |
| 20260503012040 | 69 | 50 | 1.0 | 5.0 | 0.00 | 0.00 | 0.00 | 49 | 1021.9 |
| 20260503011551 | 70 | 41 | 2.0 | 6.0 | 0.00 | 0.00 | 0.00 | 49 | 1021.8 |
| 20260503011039 | 70 | 37 | 1.0 | 6.0 | 0.00 | 0.00 | 0.00 | 49 | 1021.8 |
| 20260503010539 | 70 | 140 | 2.0 | 6.0 | 0.00 | 0.00 | 0.00 | 48 | 1021.7 |
| 20260503010051 | 71 | 105 | 1.0 | 6.0 | 0.00 | 0.00 | 0.00 | 47 | 1021.6 |
| 20260503005539 | 71 | 57 | 1.0 | 5.0 | 0.00 | 0.00 | 0.00 | 47 | 1021.6 |
| 20260503005039 | 72 | 0 | 0.0 | 3.0 | 0.00 | 0.00 | 0.00 | 46 | 1021.6 |
| 20260503004548 | 72 | 16 | 0.0 | 3.0 | 0.00 | 0.00 | 0.00 | 45 | 1021.6 |
| 20260503004039 | 72 | 0 | 0.0 | 2.0 | 0.00 | 0.00 | 0.00 | 44 | 1021.4 |
| 20260503003538 | 73 | 0 | 0.0 | 3.0 | 0.00 | 0.00 | 0.00 | 43 | 1021.4 |
| 20260503003055 | 73 | 0 | 0.0 | 3.0 | 0.00 | 0.00 | 0.00 | 43 | 1021.3 |
| 20260503002539 | 74 | 15 | 0.0 | 2.0 | 0.00 | 0.00 | 0.00 | 42 | 1021.2 |
| 20260503002037 | 74 | 0 | 0.0 | 0.0 | 0.00 | 0.00 | 0.00 | 41 | 1021.2 |
| 20260503001608 | 74 | 0 | 0.0 | 1.0 | 0.00 | 0.00 | 0.00 | 42 | 1021.3 |
| 20260503001039 | 74 | 0 | 0.0 | 2.0 | 0.00 | 0.00 | 0.00 | 41 | 1021.5 |
| 20260503000538 | 74 | 0 | 0.0 | 2.0 | 0.00 | 0.00 | 0.00 | 42 | 1021.5 |
| 20260503000109 | 74 | 0 | 1.0 | 6.0 | 0.00 | 0.00 | 0.00 | 41 | 1021.4 |
| 20260502235537 | 74 | 11 | 1.0 | 6.0 | 0.00 | 0.00 | 0.00 | 40 | 1021.6 |
| 20260502235039 | 74 | 17 | 0.0 | 6.0 | 0.00 | 0.00 | 0.00 | 40 | 1021.6 |
| 20260502234556 | 75 | 46 | 1.0 | 3.0 | 0.00 | 0.00 | 0.00 | 40 | 1021.4 |
| 20260502234039 | 75 | 0 | 0.0 | 3.0 | 0.00 | 0.00 | 0.00 | 41 | 1021.4 |
| 20260502233539 | 75 | 0 | 0.0 | 3.0 | 0.00 | 0.00 | 0.00 | 40 | 1021.4 |
| 20260502233051 | 75 | 0 | 0.0 | 3.0 | 0.00 | 0.00 | 0.00 | 41 | 1021.5 |
| 20260502232538 | 75 | 0 | 0.0 | 3.0 | 0.00 | 0.00 | 0.00 | 39 | 1021.4 |
| 20260502232038 | 75 | 0 | 0.0 | 1.0 | 0.00 | 0.00 | 0.00 | 40 | 1021.5 |
| 20260502231548 | 75 | 0 | 0.0 | 1.0 | 0.00 | 0.00 | 0.00 | 40 | 1021.5 |
| 20260502231038 | 75 | 0 | 0.0 | 4.0 | 0.00 | 0.00 | 0.00 | 39 | 1021.5 |
| 20260502230538 | 75 | 0 | 1.0 | 4.0 | 0.00 | 0.00 | 0.00 | 40 | 1021.6 |
| 20260502230048 | 75 | 25 | 0.0 | 7.0 | 0.00 | 0.00 | 0.00 | 41 | 1021.7 |
| 20260502225538 | 75 | 42 | 2.0 | 7.0 | 0.00 | 0.00 | 0.00 | 40 | 1021.6 |
| 20260502225039 | 75 | 16 | 0.0 | 7.0 | 0.00 | 0.00 | 0.00 | 41 | 1021.6 |
| 20260502224552 | 75 | 1 | 3.0 | 9.0 | 0.00 | 0.00 | 0.00 | 39 | 1021.5 |
| 20260502224038 | 75 | 15 | 2.0 | 9.0 | 0.00 | 0.00 | 0.00 | 43 | 1021.3 |
| 20260502223539 | 75 | 23 | 1.0 | 3.0 | 0.00 | 0.00 | 0.00 | 41 | 1021.3 |
| 20260502223045 | 75 | 9 | 0.0 | 3.0 | 0.00 | 0.00 | 0.00 | 40 | 1021.3 |
| 20260502222539 | 75 | 0 | 0.0 | 6.0 | 0.00 | 0.00 | 0.00 | 40 | 1021.3 |
| 20260502222038 | 75 | 25 | 2.0 | 6.0 | 0.00 | 0.00 | 0.00 | 42 | 1021.4 |
| 20260502221542 | 75 | 10 | 2.0 | 5.0 | 0.00 | 0.00 | 0.00 | 42 | 1021.5 |
| 20260502221038 | 75 | 0 | 0.0 | 6.0 | 0.00 | 0.00 | 0.00 | 41 | 1021.4 |
| 20260502220539 | 75 | 0 | 1.0 | 6.0 | 0.00 | 0.00 | 0.00 | 39 | 1021.5 |
| 20260502220050 | 75 | 44 | 0.0 | 7.0 | 0.00 | 0.00 | 0.00 | 40 | 1021.5 |
| 20260502215539 | 75 | 37 | 2.0 | 7.0 | 0.00 | 0.00 | 0.00 | 41 | 1021.5 |
| 20260502215038 | 75 | 27 | 3.0 | 6.0 | 0.00 | 0.00 | 0.00 | 41 | 1021.6 |
| 20260502214556 | 75 | 4 | 2.0 | 6.0 | 0.00 | 0.00 | 0.00 | 43 | 1021.6 |
| 20260502214038 | 74 | 37 | 3.0 | 6.0 | 0.00 | 0.00 | 0.00 | 42 | 1021.6 |
| 20260502213538 | 74 | 33 | 2.0 | 5.0 | 0.00 | 0.00 | 0.00 | 42 | 1021.7 |
| 20260502213048 | 75 | 22 | 2.0 | 7.0 | 0.00 | 0.00 | 0.00 | 40 | 1021.7 |